Fort Recovery, Ohio
Current Conditions -  °F | °C
As of 6:55 AM on Saturday 20 Dec 2014 (Local Time) from KVES Reporting Station
Overcast Overcast  
Wind Chill: 28°   Ceiling: 2200
Heat Index: 28°   Visibility: 10mi
Dew Point: 28°   Wind: 0mph
Humidity: 100%   Direction: NA
Pressure: 30.26"   Gusts: NA
Location:  40.41°N, 84.78°W
Report Text: KVES 201155Z AUTO 00000KT 10SM OVC022 M02/M02 A3026 RMK AO2
Loading
Personal Weather Stations






























Interactive Weather Map New forecast layout! Learn more

10-Day Weather Forecast

Advertisements
Track Severe Weather on mobile